Time;durP1;ratioP1;P1;durP2;ratioP2;P2;SDS_P1;SDS_P2;PMS_P1;PMS_P2;Temp;Humidity;BMP_temperature;BMP_pressure;BME280_temperature;BME280_humidity;BME280_pressure;Samples;Min_cycle;Max_cycle;Signal;HPM_P1;HPM_P2
2021/10/27 00:02:34;;;;;;;33.63;18.70;;;9.90;99.90;;;;;;4307200;33;20197;-68
2021/10/27 00:05:07;;;;;;;31.83;18.00;;;9.90;99.90;;;;;;4307299;33;20196;-69
2021/10/27 00:08:09;;;;;;;34.90;18.40;;;9.90;99.90;;;;;;4375753;32;20235;-68
2021/10/27 00:11:09;;;;;;;31.80;17.67;;;10.00;99.90;;;;;;4379564;32;20221;-69
2021/10/27 00:13:57;;;;;;;30.57;18.23;;;9.90;99.90;;;;;;4378389;32;20179;-68
2021/10/27 00:16:39;;;;;;;31.73;18.37;;;9.90;99.90;;;;;;4379828;32;20417;-69
2021/10/27 00:19:14;;;;;;;33.47;18.67;;;9.90;99.90;;;;;;4379633;32;20219;-69
2021/10/27 00:21:55;;;;;;;35.57;18.90;;;9.80;99.90;;;;;;4379624;32;20531;-68
2021/10/27 00:24:30;;;;;;;34.60;17.97;;;9.80;99.90;;;;;;4379592;32;20238;-67
2021/10/27 00:27:21;;;;;;;31.93;17.93;;;9.80;99.90;;;;;;4378115;32;20199;-68
2021/10/27 00:30:05;;;;;;;33.13;17.53;;;9.70;99.90;;;;;;4378712;32;20230;-67
2021/10/27 00:32:47;;;;;;;33.60;17.73;;;9.70;99.90;;;;;;4377783;32;20191;-67
2021/10/27 00:35:40;;;;;;;32.60;18.33;;;9.70;99.90;;;;;;4379585;32;20241;-67
2021/10/27 00:38:18;;;;;;;30.80;18.40;;;9.70;99.90;;;;;;4377553;32;20202;-67
2021/10/27 00:41:21;;;;;;;30.43;18.00;;;9.70;99.90;;;;;;4377457;32;20180;-68
2021/10/27 00:43:54;;;;;;;30.33;17.73;;;9.70;99.90;;;;;;4377544;32;20217;-67
2021/10/27 00:46:37;;;;;;;31.23;17.60;;;9.70;99.90;;;;;;4378285;32;20262;-68
2021/10/27 00:49:20;;;;;;;29.27;17.87;;;9.70;99.90;;;;;;4379311;32;20187;-69
2021/10/27 00:52:15;;;;;;;32.00;18.13;;;9.80;99.90;;;;;;4378699;32;20199;-68
2021/10/27 00:54:59;;;;;;;32.63;18.40;;;9.80;99.90;;;;;;4379135;32;20592;-68
2021/10/27 00:57:28;;;;;;;32.60;18.17;;;9.80;99.90;;;;;;4377579;32;20198;-68
2021/10/27 01:00:04;;;;;;;32.77;18.23;;;9.80;99.90;;;;;;4378159;32;20192;-68
2021/10/27 01:02:35;;;;;;;31.13;17.97;;;9.80;99.90;;;;;;4377171;32;20235;-68
2021/10/27 01:05:18;;;;;;;32.33;17.47;;;9.90;99.90;;;;;;4377359;32;20526;-69
2021/10/27 01:08:05;;;;;;;33.23;18.20;;;9.90;99.90;;;;;;4377927;32;20184;-68
2021/10/27 01:10:43;;;;;;;31.37;17.40;;;9.90;99.90;;;;;;4378202;32;20206;-68
2021/10/27 01:13:23;;;;;;;31.37;17.53;;;9.90;99.90;;;;;;4377140;32;20184;-68
2021/10/27 01:16:07;;;;;;;29.20;16.77;;;9.90;99.90;;;;;;4377539;32;20222;-69
2021/10/27 01:18:55;;;;;;;32.03;17.53;;;9.80;99.90;;;;;;4378993;32;20196;-68
2021/10/27 01:21:41;;;;;;;30.03;16.57;;;9.80;99.90;;;;;;4378773;32;20198;-68
2021/10/27 01:24:30;;;;;;;31.53;18.43;;;9.70;99.90;;;;;;4378724;32;20529;-68
2021/10/27 01:26:59;;;;;;;30.87;17.50;;;9.60;99.90;;;;;;4376782;32;20553;-68
2021/10/27 01:29:42;;;;;;;32.70;17.33;;;9.60;99.90;;;;;;4378127;32;20207;-68
2021/10/27 01:32:31;;;;;;;34.50;17.10;;;9.60;99.90;;;;;;4378063;32;20348;-68
2021/10/27 01:35:20;;;;;;;31.50;17.13;;;9.50;99.90;;;;;;4377768;32;20199;-68
2021/10/27 01:38:04;;;;;;;31.83;17.50;;;9.50;99.90;;;;;;4374899;32;20208;-68
2021/10/27 01:40:39;;;;;;;30.13;17.90;;;9.30;99.90;;;;;;4376572;32;20184;-68
2021/10/27 01:43:18;;;;;;;33.07;17.83;;;9.30;99.90;;;;;;4377839;32;20606;-68
2021/10/27 01:46:14;;;;;;;31.90;17.67;;;9.30;99.90;;;;;;4375699;32;20249;-68
2021/10/27 01:48:58;;;;;;;29.87;16.83;;;9.30;99.90;;;;;;4376397;32;20233;-68
2021/10/27 01:55:18;;;;;;;29.27;16.87;;;9.20;99.90;;;;;;4376077;32;20213;-68
2021/10/27 01:58:03;;;;;;;32.93;17.93;;;9.10;99.90;;;;;;4320436;33;20283;-69
2021/10/27 02:00:44;;;;;;;30.90;18.10;;;9.10;99.90;;;;;;4328927;33;20185;-68
2021/10/27 02:03:32;;;;;;;30.43;18.10;;;9.00;99.90;;;;;;4332022;33;20184;-69
2021/10/27 02:06:05;;;;;;;31.73;18.47;;;9.00;99.90;;;;;;4332037;33;20164;-68
2021/10/27 02:08:57;;;;;;;33.37;17.90;;;9.00;99.90;;;;;;4330851;33;20182;-68
2021/10/27 02:12:29;;;;;;;33.30;19.20;;;8.90;99.90;;;;;;4287537;33;20387;-68
2021/10/27 02:15:16;;;;;;;34.33;19.63;;;8.90;99.90;;;;;;4287380;33;20244;-68
2021/10/27 02:18:01;;;;;;;34.50;18.40;;;8.80;99.90;;;;;;4286926;33;20508;-68
2021/10/27 02:20:39;;;;;;;33.90;19.07;;;8.80;99.90;;;;;;4289046;33;20257;-68
2021/10/27 02:23:34;;;;;;;33.50;19.10;;;8.70;99.90;;;;;;4233063;33;20179;-69
2021/10/27 02:26:15;;;;;;;34.87;19.60;;;8.70;99.90;;;;;;4244737;33;20280;-69
2021/10/27 02:28:52;;;;;;;36.97;19.93;;;8.70;99.90;;;;;;4244488;33;20208;-68
2021/10/27 02:31:30;;;;;;;32.63;20.20;;;8.70;99.90;;;;;;4264028;33;20203;-69
2021/10/27 02:34:20;;;;;;;35.43;19.77;;;8.70;99.90;;;;;;4289244;33;20379;-68
2021/10/27 02:37:12;;;;;;;34.37;19.43;;;8.70;99.90;;;;;;4337541;33;20603;-68
2021/10/27 02:39:41;;;;;;;36.73;20.73;;;8.70;99.90;;;;;;4332831;33;20281;-69
2021/10/27 02:42:28;;;;;;;34.93;20.47;;;8.60;99.90;;;;;;4332593;33;20543;-70
2021/10/27 02:45:20;;;;;;;34.97;20.57;;;8.60;99.90;;;;;;4333872;33;20273;-69
2021/10/27 02:47:52;;;;;;;35.13;20.17;;;8.60;99.90;;;;;;4332403;33;20215;-68
2021/10/27 02:50:25;;;;;;;40.03;19.70;;;8.60;99.90;;;;;;4333090;33;20235;-68
2021/10/27 02:52:54;;;;;;;36.57;20.20;;;8.50;99.90;;;;;;4332909;33;20184;-67
2021/10/27 02:55:30;;;;;;;36.00;20.77;;;8.50;99.90;;;;;;4374499;32;20203;-68
2021/10/27 02:58:14;;;;;;;34.90;20.60;;;8.50;99.90;;;;;;4373897;32;20180;-68
2021/10/27 03:01:02;;;;;;;37.33;20.13;;;8.40;99.90;;;;;;4375798;32;20239;-68
2021/10/27 03:04:03;;;;;;;36.27;20.87;;;8.40;99.90;;;;;;4376423;32;20195;-68
2021/10/27 03:06:44;;;;;;;34.93;20.80;;;8.40;99.90;;;;;;4378952;32;20237;-67
2021/10/27 03:09:26;;;;;;;35.97;21.13;;;8.40;99.90;;;;;;4380975;32;20545;-68
2021/10/27 03:12:26;;;;;;;36.63;20.67;;;8.40;99.90;;;;;;4381677;32;20179;-68
2021/10/27 03:15:20;;;;;;;36.63;20.20;;;8.30;99.90;;;;;;4336350;33;20561;-68
2021/10/27 03:18:01;;;;;;;36.47;21.30;;;8.30;99.90;;;;;;4349073;33;20180;-68
2021/10/27 03:20:34;;;;;;;39.03;20.50;;;8.30;99.90;;;;;;4336653;33;20172;-68
2021/10/27 03:23:07;;;;;;;36.50;20.67;;;8.30;99.90;;;;;;4337993;33;20568;-68
2021/10/27 03:26:00;;;;;;;36.80;21.63;;;8.30;99.90;;;;;;4337800;33;20187;-67
2021/10/27 03:28:32;;;;;;;35.33;19.17;;;8.20;99.90;;;;;;4338144;33;20316;-68
2021/10/27 03:31:27;;;;;;;35.03;20.60;;;8.20;99.90;;;;;;4336259;33;20204;-68
2021/10/27 03:34:15;;;;;;;37.00;19.80;;;8.20;99.90;;;;;;4336173;33;20195;-67
2021/10/27 03:37:08;;;;;;;35.07;19.83;;;8.20;99.90;;;;;;4350601;33;20402;-67
2021/10/27 03:40:10;;;;;;;37.40;22.00;;;8.10;99.90;;;;;;4348608;33;20234;-68
2021/10/27 03:42:42;;;;;;;36.57;21.27;;;8.10;99.90;;;;;;4292340;33;20464;-68
2021/10/27 03:45:19;;;;;;;38.47;21.73;;;8.10;99.90;;;;;;4306233;33;20198;-68
2021/10/27 03:48:22;;;;;;;36.60;20.83;;;8.10;99.90;;;;;;4318264;33;20613;-68
2021/10/27 03:51:26;;;;;;;37.27;21.03;;;8.00;99.90;;;;;;4263639;33;20198;-68
2021/10/27 03:54:24;;;;;;;36.53;21.23;;;8.00;99.90;;;;;;4277319;33;20268;-67
2021/10/27 03:56:56;;;;;;;39.40;21.33;;;8.00;99.90;;;;;;4275642;33;20209;-68
2021/10/27 03:59:37;;;;;;;36.97;21.23;;;8.00;99.90;;;;;;4247297;33;20238;-67
2021/10/27 04:02:10;;;;;;;43.33;22.30;;;8.00;99.90;;;;;;4246932;33;20242;-67
2021/10/27 04:05:10;;;;;;;38.37;21.80;;;7.90;99.90;;;;;;4191687;34;20270;-68
2021/10/27 04:07:37;;;;;;;39.00;22.20;;;7.90;99.90;;;;;;4191886;34;20539;-68
2021/10/27 04:10:38;;;;;;;40.83;22.07;;;7.80;99.90;;;;;;4191365;34;20182;-68
2021/10/27 04:13:29;;;;;;;40.40;22.70;;;7.80;99.90;;;;;;4191172;34;20228;-68
2021/10/27 04:16:09;;;;;;;40.10;22.40;;;7.70;99.90;;;;;;4192226;34;20184;-68
2021/10/27 04:18:37;;;;;;;45.10;22.90;;;7.70;99.90;;;;;;4204661;34;20206;-68
2021/10/27 04:21:21;;;;;;;36.50;21.57;;;7.70;99.90;;;;;;4221068;34;20517;-68
2021/10/27 04:24:10;;;;;;;38.30;21.23;;;7.70;99.90;;;;;;4234709;34;20175;-68
2021/10/27 04:26:51;;;;;;;38.97;21.50;;;7.70;99.90;;;;;;4237752;33;20197;-68
2021/10/27 04:29:26;;;;;;;36.77;21.87;;;7.70;99.90;;;;;;4277270;33;20267;-68
2021/10/27 04:32:10;;;;;;;40.23;21.93;;;7.70;99.90;;;;;;4277852;33;20185;-68
2021/10/27 04:35:11;;;;;;;38.07;22.27;;;7.60;99.90;;;;;;4246788;33;20185;-68
2021/10/27 04:37:51;;;;;;;38.70;22.10;;;7.60;99.90;;;;;;4269483;33;20224;-69
2021/10/27 04:40:49;;;;;;;42.33;23.10;;;7.60;99.90;;;;;;4263024;33;20184;-68
2021/10/27 04:43:42;;;;;;;37.93;21.27;;;7.60;99.90;;;;;;4347819;33;20286;-69
2021/10/27 04:46:25;;;;;;;38.47;21.07;;;7.60;99.90;;;;;;4335426;33;20249;-68
2021/10/27 04:49:03;;;;;;;40.03;22.13;;;7.60;99.90;;;;;;4335317;33;20609;-69
2021/10/27 04:51:53;;;;;;;40.63;23.90;;;7.60;99.90;;;;;;4336437;33;20459;-69
2021/10/27 04:54:40;;;;;;;39.37;23.07;;;7.50;99.90;;;;;;4335235;33;20202;-69
2021/10/27 04:57:37;;;;;;;41.47;22.17;;;7.50;99.90;;;;;;4335229;33;20183;-68
2021/10/27 05:00:24;;;;;;;43.90;23.80;;;7.40;99.90;;;;;;4275178;33;20439;-69
2021/10/27 05:03:06;;;;;;;39.73;23.00;;;7.40;99.90;;;;;;4276148;33;20232;-68
2021/10/27 05:06:20;;;;;;;39.37;22.80;;;7.30;99.90;;;;;;4262465;33;20237;-68
2021/10/27 05:09:03;;;;;;;41.80;24.07;;;7.30;99.90;;;;;;4262975;33;20204;-68
2021/10/27 05:12:05;;;;;;;42.90;23.70;;;7.30;99.90;;;;;;4295868;33;20168;-68
2021/10/27 05:14:47;;;;;;;42.27;23.40;;;7.20;99.90;;;;;;4305600;33;20463;-68
2021/10/27 05:18:00;;;;;;;40.83;23.50;;;7.20;99.90;;;;;;4304488;33;20212;-68
2021/10/27 05:20:34;;;;;;;41.63;22.93;;;7.20;99.90;;;;;;4305767;33;20239;-68
2021/10/27 05:23:18;;;;;;;44.70;24.33;;;7.20;99.90;;;;;;4317759;33;20170;-68
2021/10/27 05:26:02;;;;;;;37.57;22.80;;;7.20;99.90;;;;;;4305492;33;20628;-68
2021/10/27 05:28:59;;;;;;;38.40;22.50;;;7.20;99.90;;;;;;4305135;33;20181;-68
2021/10/27 05:31:51;;;;;;;41.27;23.53;;;7.20;99.90;;;;;;4306187;33;20542;-68
2021/10/27 05:34:29;;;;;;;46.23;24.03;;;7.10;99.90;;;;;;4305474;33;20561;-67
2021/10/27 05:37:20;;;;;;;45.50;23.50;;;7.10;99.90;;;;;;4278552;33;20489;-68
2021/10/27 05:40:13;;;;;;;40.40;23.97;;;7.00;99.90;;;;;;4332108;33;20185;-67
2021/10/27 05:42:54;;;;;;;44.87;23.90;;;7.00;99.90;;;;;;4332458;33;20592;-65
2021/10/27 05:45:42;;;;;;;40.57;23.07;;;7.00;99.90;;;;;;4321070;33;20228;-72
2021/10/27 05:51:37;;;;;;;43.00;24.20;;;7.00;99.90;;;;;;4316796;33;20288;-69
2021/10/27 05:57:17;;;;;;;43.83;25.50;;;7.00;99.90;;;;;;4317381;33;20581;-68
2021/10/27 06:00:08;;;;;;;41.07;23.77;;;7.00;99.90;;;;;;4317339;33;20304;-68
2021/10/27 06:03:11;;;;;;;;;;;;;;;;;;;;;
2021/10/27 06:05:52;;;;;;;42.60;23.43;;;7.00;99.90;;;;;;4318883;33;20188;-67
2021/10/27 06:08:38;;;;;;;44.57;23.57;;;7.10;99.90;;;;;;4315429;33;20246;-68
2021/10/27 06:11:26;;;;;;;47.17;23.90;;;7.00;99.90;;;;;;4319326;33;20199;-68
2021/10/27 06:13:59;;;;;;;41.60;23.43;;;7.10;99.90;;;;;;4319176;33;20617;-69
2021/10/27 06:17:03;;;;;;;51.30;23.70;;;7.10;99.90;;;;;;4273686;33;20532;-67
2021/10/27 06:19:37;;;;;;;45.20;22.97;;;7.10;99.90;;;;;;4273612;33;20204;-67
2021/10/27 06:22:37;;;;;;;39.80;22.57;;;7.10;99.90;;;;;;4275510;33;20233;-68
2021/10/27 06:25:22;;;;;;;39.30;23.30;;;7.20;99.90;;;;;;4275222;33;20401;-68
2021/10/27 06:28:23;;;;;;;44.40;23.37;;;7.10;99.90;;;;;;4259052;33;20178;-67
2021/10/27 06:31:33;;;;;;;42.20;23.83;;;7.20;99.90;;;;;;4289338;33;20229;-68
2021/10/27 06:48:37;;;;;;;42.03;23.17;;;7.70;99.90;;;;;;4234246;33;20250;-68
2021/10/27 06:51:16;;;;;;;42.93;23.17;;;7.70;99.90;;;;;;4242416;33;20449;-66
2021/10/27 06:53:57;;;;;;;41.07;23.23;;;7.90;99.90;;;;;;4261626;33;20265;-65
2021/10/27 07:03:43;;;;;;;40.37;21.83;;;8.00;99.90;;;;;;4284788;33;20268;-67
2021/10/27 07:15:28;;;;;;;40.70;22.17;;;8.20;99.90;;;;;;4320175;33;20617;-67
2021/10/27 07:18:28;;;;;;;41.47;21.60;;;8.30;99.90;;;;;;4319004;33;20196;-67
2021/10/27 07:21:12;;;;;;;40.07;22.00;;;8.40;99.90;;;;;;4347773;33;20187;-67
2021/10/27 07:23:46;;;;;;;38.70;21.83;;;8.60;99.90;;;;;;4361788;33;20616;-65
2021/10/27 07:26:37;;;;;;;42.37;22.27;;;8.70;99.90;;;;;;4374432;32;20251;-66
2021/10/27 07:29:42;;;;;;;;;;;;;;;;;;;;;
2021/10/27 07:32:27;;;;;;;39.53;21.93;;;8.90;99.90;;;;;;4362408;33;20191;-65
2021/10/27 07:41:02;;;;;;;40.60;21.17;;;9.10;99.90;;;;;;4362832;33;20207;-66
2021/10/27 07:44:18;;;;;;;38.63;21.17;;;9.20;99.90;;;;;;4362762;33;20215;-65
2021/10/27 07:46:58;;;;;;;38.47;21.40;;;9.30;99.90;;;;;;4364708;32;20483;-66
2021/10/27 07:49:42;;;;;;;38.63;21.00;;;9.40;99.90;;;;;;4361895;32;20227;-67
2021/10/27 07:52:15;;;;;;;33.03;20.13;;;9.60;99.90;;;;;;4364758;32;20259;-66
2021/10/27 07:54:53;;;;;;;34.97;20.83;;;9.80;99.90;;;;;;4363998;33;20183;-66
2021/10/27 07:57:57;;;;;;;35.17;20.87;;;9.90;99.90;;;;;;4365552;32;20234;-66
2021/10/27 08:00:38;;;;;;;36.43;20.73;;;10.20;99.90;;;;;;4363061;32;20172;-67
2021/10/27 08:06:59;;;;;;;35.30;19.60;;;10.60;99.90;;;;;;4365628;32;20287;-66
2021/10/27 08:10:22;;;;;;;36.60;20.50;;;10.70;99.90;;;;;;4365369;32;20206;-66
2021/10/27 08:12:58;;;;;;;33.83;19.17;;;10.80;99.90;;;;;;4363744;33;20250;-65
2021/10/27 08:15:52;;;;;;;34.40;19.27;;;10.90;99.90;;;;;;4366959;32;20205;-65
2021/10/27 08:18:26;;;;;;;36.43;19.73;;;10.90;99.90;;;;;;4365316;32;20491;-65
2021/10/27 08:21:06;;;;;;;36.20;18.73;;;11.00;99.90;;;;;;4363267;33;20231;-66
2021/10/27 08:23:39;;;;;;;35.83;19.03;;;11.00;99.90;;;;;;4366891;32;20425;-65
2021/10/27 08:26:18;;;;;;;30.13;18.43;;;10.90;99.90;;;;;;4364985;32;20568;-65
2021/10/27 08:29:12;;;;;;;32.50;17.83;;;11.00;99.90;;;;;;4364773;32;20185;-65
2021/10/27 08:32:15;;;;;;;30.60;17.57;;;11.10;99.90;;;;;;4310690;33;20539;-65
2021/10/27 08:34:54;;;;;;;31.93;18.00;;;11.30;99.90;;;;;;4298117;33;20203;-66
2021/10/27 08:37:38;;;;;;;28.43;16.17;;;11.60;99.90;;;;;;4307495;33;20181;-65
2021/10/27 08:40:23;;;;;;;26.60;17.03;;;11.70;99.90;;;;;;4306901;33;20172;-65
2021/10/27 08:43:01;;;;;;;29.10;16.53;;;11.70;99.90;;;;;;4307663;33;20181;-65
2021/10/27 08:45:40;;;;;;;28.50;16.27;;;12.00;99.90;;;;;;4307315;33;20192;-66
2021/10/27 08:48:16;;;;;;;30.20;16.27;;;12.50;99.90;;;;;;4305968;33;20275;-66
2021/10/27 08:51:06;;;;;;;26.93;16.00;;;12.80;99.90;;;;;;4305574;33;20173;-66
2021/10/27 08:53:39;;;;;;;25.00;15.13;;;12.60;99.90;;;;;;4307242;33;20185;-67
2021/10/27 08:56:36;;;;;;;24.93;15.00;;;12.50;99.90;;;;;;4306579;33;20235;-67
2021/10/27 08:59:38;;;;;;;29.57;14.60;;;12.50;99.90;;;;;;4305372;33;20200;-66
2021/10/27 09:14:31;;;;;;;24.57;13.90;;;12.60;99.90;;;;;;4350794;33;20203;-66
2021/10/27 10:06:01;;;;;;;17.80;10.27;;;14.50;99.90;;;;;;4273508;33;20229;-67
2021/10/27 10:08:27;;;;;;;17.73;9.80;;;14.50;99.90;;;;;;4260453;33;20577;-67
2021/10/27 10:11:02;;;;;;;16.27;9.60;;;14.50;99.90;;;;;;4262919;33;20209;-66
2021/10/27 10:13:50;;;;;;;17.37;8.57;;;14.50;99.90;;;;;;4254787;33;20178;-66
2021/10/27 10:16:31;;;;;;;14.00;7.53;;;14.30;99.90;;;;;;4257974;33;20251;-65
2021/10/27 10:19:30;;;;;;;14.17;7.50;;;14.20;99.90;;;;;;4258551;33;20556;-66
2021/10/27 10:22:36;;;;;;;15.87;7.40;;;14.00;99.90;;;;;;4245030;33;20440;-68
2021/10/27 10:25:21;;;;;;;13.60;7.37;;;14.00;99.90;;;;;;4267860;33;20183;-65
2021/10/27 10:27:59;;;;;;;11.43;7.43;;;14.00;99.90;;;;;;4280521;33;20199;-66
2021/10/27 10:30:54;;;;;;;12.23;6.70;;;14.00;99.90;;;;;;4308873;33;20211;-66
2021/10/27 10:34:01;;;;;;;14.17;7.50;;;14.10;99.90;;;;;;4316380;33;20232;-67
2021/10/27 10:36:46;;;;;;;10.63;6.53;;;14.20;99.90;;;;;;4292898;33;20204;-66
2021/10/27 10:39:49;;;;;;;12.40;6.87;;;14.30;99.90;;;;;;4329210;33;20252;-68
2021/10/27 10:57:50;;;;;;;10.57;6.33;;;14.20;99.90;;;;;;4337340;33;20176;-66
2021/10/27 11:51:18;;;;;;;11.13;6.30;;;19.80;99.90;;;;;;4247697;33;20206;-67
2021/10/27 11:54:00;;;;;;;9.57;6.07;;;19.10;99.90;;;;;;4247299;33;20239;-67
2021/10/27 11:56:31;;;;;;;12.17;6.07;;;18.60;99.90;;;;;;4249080;33;20170;-67
2021/10/27 11:59:07;;;;;;;10.70;5.40;;;18.70;99.90;;;;;;4248548;33;20240;-68
2021/10/27 12:02:02;;;;;;;10.03;5.33;;;18.70;99.90;;;;;;4248739;33;20395;-68
2021/10/27 12:04:39;;;;;;;9.47;5.10;;;18.60;99.90;;;;;;4248343;33;20175;-67
2021/10/27 12:07:51;;;;;;;;;;;;;;;;;;;;;
2021/10/27 12:19:27;;;;;;;12.20;5.50;;;16.00;99.90;;;;;;4289897;33;20410;-68
2021/10/27 12:22:19;;;;;;;11.67;5.57;;;15.80;99.90;;;;;;4279931;33;20249;-68
2021/10/27 12:25:10;;;;;;;11.40;5.60;;;15.90;99.90;;;;;;4277445;33;20225;-68
2021/10/27 12:28:03;;;;;;;10.30;5.87;;;15.90;99.90;;;;;;4277618;33;20174;-68
2021/10/27 12:30:44;;;;;;;9.80;5.80;;;15.80;99.90;;;;;;4278287;33;20232;-68
2021/10/27 12:33:16;;;;;;;14.23;5.63;;;15.70;99.90;;;;;;4279289;33;20188;-69
2021/10/27 12:35:53;;;;;;;13.00;5.73;;;15.60;99.90;;;;;;4277344;33;20256;-68
2021/10/27 12:38:46;;;;;;;11.17;5.80;;;15.50;99.90;;;;;;4279508;33;20192;-66
2021/10/27 12:41:28;;;;;;;10.63;5.83;;;15.40;99.90;;;;;;4291364;33;20169;-66
2021/10/27 12:44:28;;;;;;;11.03;6.23;;;15.40;99.90;;;;;;4279135;33;20279;-66
2021/10/27 12:47:15;;;;;;;11.13;6.03;;;15.40;99.90;;;;;;4279344;33;20192;-66
2021/10/27 12:49:49;;;;;;;10.90;6.30;;;15.30;99.90;;;;;;4286571;33;20280;-66
2021/10/27 12:55:35;;;;;;;11.33;6.30;;;15.10;99.90;;;;;;4289990;33;20181;-66
2021/10/27 12:58:23;;;;;;;13.93;6.40;;;15.10;99.90;;;;;;4289425;33;20186;-67
2021/10/27 13:01:15;;;;;;;11.20;5.87;;;15.10;99.90;;;;;;4290613;33;20229;-67
2021/10/27 13:06:55;;;;;;;10.93;5.93;;;15.00;99.90;;;;;;4289259;33;20387;-67
2021/10/27 13:12:43;;;;;;;13.03;6.40;;;14.80;99.90;;;;;;4289085;33;20241;-66
2021/10/27 13:15:41;;;;;;;11.40;6.60;;;14.80;99.90;;;;;;4290806;33;20200;-66
2021/10/27 13:18:56;;;;;;;10.73;6.77;;;14.80;99.90;;;;;;4290628;33;20453;-65
2021/10/27 13:22:01;;;;;;;10.47;6.23;;;14.80;99.90;;;;;;4277964;33;20245;-66
2021/10/27 13:30:07;;;;;;;12.87;6.40;;;15.10;99.90;;;;;;4349996;33;20187;-66
2021/10/27 13:32:54;;;;;;;15.50;6.83;;;15.10;99.90;;;;;;4350610;33;20223;-66
2021/10/27 13:35:35;;;;;;;13.87;6.57;;;15.10;99.90;;;;;;4349384;33;20254;-66
2021/10/27 13:38:23;;;;;;;11.03;6.30;;;15.00;99.90;;;;;;4349348;33;20282;-65
2021/10/27 13:40:57;;;;;;;11.80;6.00;;;15.00;99.90;;;;;;4349502;33;20190;-67
2021/10/27 13:43:31;;;;;;;10.93;6.33;;;15.00;99.90;;;;;;4350418;32;20263;-66
2021/10/27 13:46:38;;;;;;;10.37;6.07;;;14.90;99.90;;;;;;4350831;32;20231;-66
2021/10/27 14:07:31;;;;;;;10.50;6.10;;;14.50;99.90;;;;;;4335852;33;20472;-68
2021/10/27 14:10:14;;;;;;;11.27;6.17;;;14.50;99.90;;;;;;4348361;33;20172;-67
2021/10/27 14:13:23;;;;;;;11.57;6.73;;;14.40;99.90;;;;;;4332583;33;20578;-67
2021/10/27 14:16:21;;;;;;;11.30;6.70;;;14.40;99.90;;;;;;4334340;33;20488;-66
2021/10/27 14:47:53;;;;;;;15.67;6.90;;;14.00;99.90;;;;;;4363572;32;20198;-65
2021/10/27 14:51:07;;;;;;;13.87;5.83;;;14.00;99.90;;;;;;4363859;32;20246;-66
2021/10/27 15:15:29;;;;;;;14.13;6.30;;;13.90;99.90;;;;;;4363570;32;20232;-66
2021/10/27 15:20:21;;;;;;;16.53;6.63;;;13.80;99.90;;;;;;4278166;33;20174;-67
2021/10/27 15:52:12;;;;;;;10.57;5.63;;;13.50;99.90;;;;;;4275498;33;20190;-68
2021/10/27 15:54:51;;;;;;;9.83;5.97;;;13.50;99.90;;;;;;4270855;33;20250;-68
2021/10/27 15:57:25;;;;;;;13.40;6.07;;;13.50;99.90;;;;;;4263264;33;20208;-68
2021/10/27 16:00:19;;;;;;;13.23;6.90;;;13.40;99.90;;;;;;4262576;33;20178;-68
2021/10/27 16:03:07;;;;;;;11.30;6.60;;;13.40;99.90;;;;;;4333042;33;20243;-68
2021/10/27 16:05:50;;;;;;;12.27;6.27;;;13.40;99.90;;;;;;4333207;33;20203;-68
2021/10/27 16:08:38;;;;;;;16.33;6.40;;;13.40;99.90;;;;;;4333910;33;20182;-67
2021/10/27 16:11:17;;;;;;;13.83;7.03;;;13.40;99.90;;;;;;4332528;33;20211;-67
2021/10/27 16:13:54;;;;;;;16.37;7.10;;;13.40;99.90;;;;;;4333351;33;20188;-67
2021/10/27 16:16:32;;;;;;;12.47;6.20;;;13.40;99.90;;;;;;4334754;33;20527;-68
2021/10/27 16:19:39;;;;;;;14.43;6.70;;;13.30;99.90;;;;;;4333797;33;20179;-67
2021/10/27 16:22:44;;;;;;;14.23;7.20;;;13.30;99.90;;;;;;4339911;32;20179;-67
2021/10/27 16:25:35;;;;;;;15.37;7.13;;;13.20;99.90;;;;;;4381702;32;20437;-68
2021/10/27 16:28:10;;;;;;;14.20;6.83;;;13.20;99.90;;;;;;4379973;32;20207;-68
2021/10/27 16:31:13;;;;;;;17.60;7.50;;;13.20;99.90;;;;;;4378174;32;20425;-67
2021/10/27 16:33:48;;;;;;;12.97;7.07;;;13.20;99.90;;;;;;4378562;32;20179;-67
2021/10/27 16:36:20;;;;;;;12.57;7.37;;;13.20;99.90;;;;;;4379158;32;20518;-68
2021/10/27 16:39:11;;;;;;;14.60;7.53;;;13.20;99.90;;;;;;4335446;33;20172;-68
2021/10/27 16:42:09;;;;;;;18.30;7.43;;;13.20;99.90;;;;;;4337185;33;20245;-68
2021/10/27 16:44:50;;;;;;;12.83;7.20;;;13.20;99.90;;;;;;4336186;33;20167;-68
2021/10/27 16:47:23;;;;;;;16.20;7.50;;;13.20;99.90;;;;;;4335017;33;20207;-67
2021/10/27 16:50:13;;;;;;;12.87;7.20;;;13.20;99.90;;;;;;4334742;33;20164;-68
2021/10/27 16:52:59;;;;;;;15.53;7.20;;;13.30;99.90;;;;;;4335804;33;20546;-67
2021/10/27 16:55:40;;;;;;;15.40;7.13;;;13.20;99.90;;;;;;4335215;33;20255;-67
2021/10/27 16:58:31;;;;;;;13.93;7.03;;;13.20;99.90;;;;;;4335003;33;20533;-68
2021/10/27 17:01:07;;;;;;;13.13;7.03;;;13.20;99.90;;;;;;4334061;33;20188;-68
2021/10/27 17:03:52;;;;;;;12.23;6.63;;;13.20;99.90;;;;;;4334883;33;20192;-67
2021/10/27 17:06:27;;;;;;;14.53;6.60;;;13.20;99.90;;;;;;4336649;33;20586;-67
2021/10/27 17:08:58;;;;;;;14.30;7.67;;;13.20;99.90;;;;;;4334624;33;20198;-67
2021/10/27 17:11:30;;;;;;;16.57;7.53;;;13.20;99.90;;;;;;4334998;33;20239;-68
2021/10/27 17:14:01;;;;;;;11.83;7.00;;;13.20;99.90;;;;;;4347045;33;20187;-67
2021/10/27 17:16:45;;;;;;;13.83;8.33;;;13.10;99.90;;;;;;4362642;32;20441;-68
2021/10/27 17:19:33;;;;;;;13.67;7.17;;;13.10;99.90;;;;;;4377523;32;20184;-68
2021/10/27 17:22:07;;;;;;;13.40;7.70;;;13.10;99.90;;;;;;4378204;32;20258;-67
2021/10/27 17:24:34;;;;;;;13.97;7.50;;;13.10;99.90;;;;;;4379230;32;20568;-68
2021/10/27 17:27:29;;;;;;;14.17;7.00;;;13.10;99.90;;;;;;4379637;32;20221;-67
2021/10/27 17:30:00;;;;;;;16.10;7.40;;;13.10;99.90;;;;;;4376956;32;20513;-67
2021/10/27 17:32:58;;;;;;;14.83;6.53;;;13.10;99.90;;;;;;4378193;32;20209;-68
2021/10/27 17:35:46;;;;;;;16.03;7.30;;;13.00;99.90;;;;;;4377810;32;20180;-67
2021/10/27 17:38:35;;;;;;;15.40;7.17;;;13.00;99.90;;;;;;4378656;32;20171;-68
2021/10/27 17:41:27;;;;;;;12.57;6.93;;;13.00;99.90;;;;;;4378437;32;20180;-67
2021/10/27 17:44:29;;;;;;;14.87;7.47;;;13.00;99.90;;;;;;4377677;32;20190;-67
2021/10/27 17:47:11;;;;;;;11.73;6.63;;;13.00;99.90;;;;;;4378763;32;20209;-68
2021/10/27 17:59:04;;;;;;;13.30;7.53;;;12.90;99.90;;;;;;4334531;33;20255;-68
2021/10/27 18:01:57;;;;;;;15.00;7.87;;;12.90;99.90;;;;;;4336017;33;20597;-68
2021/10/27 18:05:06;;;;;;;16.13;8.03;;;12.90;99.90;;;;;;4335350;33;20172;-68
2021/10/27 18:07:42;;;;;;;15.40;8.40;;;12.90;99.90;;;;;;4290414;33;20582;-68
2021/10/27 18:10:23;;;;;;;15.30;7.90;;;12.90;99.90;;;;;;4292452;33;20218;-67
2021/10/27 18:12:54;;;;;;;15.77;8.13;;;12.90;99.90;;;;;;4290722;33;20228;-67
2021/10/27 18:15:51;;;;;;;17.13;8.40;;;12.90;99.90;;;;;;4303233;33;20191;-68
2021/10/27 18:18:40;;;;;;;15.57;8.13;;;12.90;99.90;;;;;;4290382;33;20188;-67
2021/10/27 18:39:18;;;;;;;14.73;8.33;;;12.90;99.90;;;;;;4231641;34;20194;-68
2021/10/27 18:42:04;;;;;;;18.53;8.43;;;13.00;99.90;;;;;;4232519;34;20254;-69
2021/10/27 18:44:58;;;;;;;13.47;7.70;;;13.00;99.90;;;;;;4240114;33;20182;-68
2021/10/27 18:47:52;;;;;;;14.17;7.57;;;13.00;99.90;;;;;;4246652;33;20565;-68
2021/10/27 18:50:26;;;;;;;16.50;8.17;;;13.00;99.90;;;;;;4245625;33;20214;-68
2021/10/27 18:53:16;;;;;;;15.93;8.17;;;13.00;99.90;;;;;;4245640;33;20428;-68
2021/10/27 19:03:08;;;;;;;15.43;7.70;;;13.10;99.90;;;;;;4256577;33;20182;-67
2021/10/27 19:11:45;;;;;;;15.63;8.50;;;13.10;99.90;;;;;;4273603;33;20225;-67
2021/10/27 19:17:53;;;;;;;15.40;8.03;;;13.00;99.90;;;;;;4275798;33;20505;-67
2021/10/27 19:20:32;;;;;;;16.97;8.73;;;13.00;99.90;;;;;;4275830;33;20540;-68
2021/10/27 19:23:12;;;;;;;17.60;8.73;;;13.00;99.90;;;;;;4287109;33;20187;-67
2021/10/27 19:26:18;;;;;;;17.67;8.60;;;13.00;99.90;;;;;;4275618;33;20647;-68
2021/10/27 19:29:25;;;;;;;15.30;9.07;;;12.90;99.90;;;;;;4275907;33;20181;-68
2021/10/27 19:31:57;;;;;;;17.90;8.93;;;13.00;99.90;;;;;;4288539;33;20260;-68
2021/10/27 20:09:20;;;;;;;16.87;9.40;;;12.80;99.90;;;;;;4378796;32;20179;-68
2021/10/27 20:51:13;;;;;;;17.40;9.70;;;12.70;99.90;;;;;;4305915;33;20182;-67
2021/10/27 20:54:04;;;;;;;16.93;8.80;;;12.70;99.90;;;;;;4320724;33;20176;-67
2021/10/27 20:56:43;;;;;;;19.70;9.60;;;12.70;99.90;;;;;;4332839;33;20218;-67
2021/10/27 20:59:30;;;;;;;18.80;9.20;;;12.70;99.90;;;;;;4332639;33;20242;-67
2021/10/27 21:14:59;;;;;;;15.33;8.30;;;12.80;99.90;;;;;;4335056;33;20246;-67
2021/10/27 21:17:40;;;;;;;17.03;8.77;;;12.80;99.90;;;;;;4336949;33;20204;-68
2021/10/27 21:20:31;;;;;;;17.43;8.90;;;12.80;99.90;;;;;;4349015;33;20204;-68
2021/10/27 21:23:09;;;;;;;16.90;8.27;;;12.80;99.90;;;;;;4334496;33;20203;-66
2021/10/27 21:25:52;;;;;;;13.27;7.93;;;12.80;99.90;;;;;;4336411;33;20180;-67
2021/10/27 21:28:54;;;;;;;18.43;8.60;;;12.80;99.90;;;;;;4336005;33;20596;-67